Terminal Aerodrome Forecast
Issued by NWS Shreveport, LA

Home | Current Version | Previous Version | Text Only | Print | Product List | Glossary On
Versions: 1 2 3 4 5 6 7 8 9 10 11 12 13 14 15 16 17 18 19 20 21 22 23 24 25 26 27 28 29 30 31 32 33
645
FTUS44 KSHV 250025 AAA
TAFTXK
TAF AMD
KTXK 250025Z 2500/2524 27007KT P6SM SCT050 BKN070 BKN100
     FM250200 30006KT P6SM SCT070 OVC200
     FM250600 35004KT P6SM SCT200
     FM251500 10007KT P6SM BKN250=

USA.gov is the U.S. government's official web portal to all federal, state and local government web resources and services.